Time;durP1;ratioP1;P1;durP2;ratioP2;P2;SDS_P1;SDS_P2;PMS_P1;PMS_P2;Temp;Humidity;BMP_temperature;BMP_pressure;BME280_temperature;BME280_humidity;BME280_pressure;Samples;Min_cycle;Max_cycle;Signal;HPM_P1;HPM_P2
2022/02/05 00:00:25;;;;;;;14.38;2.08;;;;;;;2.68;100.00;99277.47;4846139;29;20062;-87
2022/02/05 00:11:07;;;;;;;18.15;2.28;;;;;;;2.25;100.00;99202.16;4847001;29;20011;-90
2022/02/05 00:38:36;;;;;;;15.32;2.03;;;;;;;3.75;100.00;99354.69;4829094;29;20022;-90
2022/02/05 00:41:14;;;;;;;15.43;2.22;;;;;;;2.81;100.00;99197.94;4849635;29;20091;-89
2022/02/05 00:43:45;;;;;;;18.23;2.70;;;;;;;3.84;100.00;99365.19;4849200;29;20108;-90
2022/02/05 00:46:13;;;;;;;11.80;1.70;;;;;;;3.87;100.00;99375.44;4849255;29;20015;-89
2022/02/05 00:48:39;;;;;;;18.13;2.47;;;;;;;3.73;100.00;99340.72;4849247;29;20026;-90
2022/02/05 00:51:13;;;;;;;10.75;1.67;;;;;;;3.37;100.00;99282.28;4849400;29;20030;-89
2022/02/05 00:53:41;;;;;;;15.40;2.38;;;;;;;3.30;100.00;99276.09;4848813;29;20030;-89
2022/02/05 00:56:14;;;;;;;14.55;2.42;;;;;;;3.03;100.00;99216.53;4848891;29;20039;-88
2022/02/05 00:58:40;;;;;;;18.35;2.38;;;;;;;3.12;100.00;99236.69;4849414;29;20049;-90
2022/02/05 01:01:08;;;;;;;12.88;1.65;;;;;;;3.72;100.00;99328.47;4847868;29;20066;-90
2022/02/05 01:03:36;;;;;;;21.67;2.97;;;;;;;3.14;100.00;99247.09;4847635;29;20038;-90
2022/02/05 01:06:04;;;;;;;15.07;3.05;;;;;;;4.18;100.00;99396.41;4849256;29;20068;-89
2022/02/05 01:08:31;;;;;;;18.27;2.47;;;;;;;3.41;100.00;99288.06;4849920;29;20087;-90
2022/02/05 01:10:57;;;;;;;18.13;2.60;;;;;;;3.12;100.00;99241.16;4866156;29;20014;-90
2022/02/05 01:13:23;;;;;;;15.32;2.08;;;;;;;3.36;100.00;99263.88;4867534;29;20049;-91
2022/02/05 01:16:00;;;;;;;14.18;2.90;;;;;;;4.11;100.00;99396.34;4868046;29;20082;-90
2022/02/05 01:18:26;;;;;;;23.75;2.92;;;;;;;3.40;100.00;99308.50;4865696;29;20021;-88
2022/02/05 01:24:01;;;;;;;11.75;1.88;;;;;;;3.23;100.00;99254.75;4848250;29;20077;-89
2022/02/05 01:28:58;;;;;;;27.63;3.78;;;;;;;3.38;100.00;99252.06;4849273;29;20053;-89
2022/02/05 01:31:28;;;;;;;16.60;2.43;;;;;;;3.89;100.00;99339.66;4849610;29;20090;-90
2022/02/05 01:39:41;;;;;;;20.88;3.22;;;;;;;3.58;100.00;99302.75;4834532;29;20034;-89
2022/02/05 01:50:36;;;;;;;16.52;2.78;;;;;;;3.51;100.00;99321.31;4831128;29;20021;-90
2022/02/05 01:53:10;;;;;;;22.92;3.15;;;;;;;3.39;100.00;99306.06;4861236;29;20026;-90
2022/02/05 01:55:59;;;;;;;26.15;2.83;;;;;;;3.44;100.00;99303.63;4866542;29;20034;-90
2022/02/05 02:11:55;;;;;;;23.52;2.88;;;;;;;3.03;100.00;99283.78;4830426;29;20057;-90
2022/02/05 02:14:45;;;;;;;21.17;3.45;;;;;;;3.36;100.00;99341.00;4839198;29;20019;-90
2022/02/05 02:25:09;;;;;;;17.50;2.00;;;;;;;2.72;100.00;99244.22;4897874;24;20020;-89
2022/02/05 02:32:43;;;;;;;20.63;3.28;;;;;;;3.76;100.00;99408.72;4885386;29;20049;-91
2022/02/05 02:35:15;;;;;;;21.00;2.63;;;;;;;2.90;100.00;99280.97;4884023;29;20010;-89
2022/02/05 02:37:54;;;;;;;22.98;3.30;;;;;;;3.18;100.00;99331.59;4885338;29;20030;-90
2022/02/05 02:40:29;;;;;;;26.85;3.10;;;;;;;2.93;100.00;99309.84;4874604;29;20012;-90
2022/02/05 02:43:02;;;;;;;24.60;3.17;;;;;;;2.87;100.00;99288.50;4858863;24;20059;-90
2022/02/05 02:45:28;;;;;;;24.45;3.15;;;;;;;2.66;100.00;99257.41;4913406;23;20054;-90
2022/02/05 02:47:54;;;;;;;32.22;3.97;;;;;;;2.67;100.00;99264.38;4866437;29;20034;-90
2022/02/05 02:58:20;;;;;;;12.50;2.05;;;;;;;2.82;100.00;99292.56;4847369;29;20040;-90
2022/02/05 03:00:48;;;;;;;21.95;2.72;;;;;;;2.54;100.00;99255.22;4853574;29;20086;-90
2022/02/05 03:03:14;;;;;;;27.83;2.92;;;;;;;2.59;100.00;99260.00;4865195;29;20022;-89
2022/02/05 03:05:40;;;;;;;24.17;3.33;;;;;;;2.59;100.00;99265.31;4865264;29;20018;-90
2022/02/05 03:08:08;;;;;;;17.10;2.35;;;;;;;2.59;100.00;99262.66;4865108;29;20030;-89
2022/02/05 03:10:34;;;;;;;18.27;2.63;;;;;;;2.42;100.00;99251.41;4865142;29;20033;-90
2022/02/05 03:13:00;;;;;;;26.25;3.40;;;;;;;2.82;100.00;99300.53;4865968;29;20034;-90
2022/02/05 03:15:26;;;;;;;21.30;2.83;;;;;;;2.43;100.00;99245.09;4860968;29;20023;-90
2022/02/05 03:17:55;;;;;;;18.02;2.45;;;;;;;2.39;100.00;99237.69;4846567;29;20034;-90
2022/02/05 03:20:22;;;;;;;25.90;2.88;;;;;;;3.48;100.00;99400.66;4847243;29;20014;-89
2022/02/05 03:22:47;;;;;;;36.05;4.05;;;;;;;3.09;100.00;99346.00;4846997;29;20500;-90
2022/02/05 03:25:13;;;;;;;25.65;3.05;;;;;;;2.86;100.00;99318.75;4862063;29;20064;-89
2022/02/05 03:27:39;;;;;;;28.50;3.58;;;;;;;2.89;100.00;99307.75;4846822;29;20260;-90
2022/02/05 03:30:06;;;;;;;25.92;3.75;;;;;;;2.94;100.00;99334.56;4846275;29;20030;-89
2022/02/05 03:32:31;;;;;;;24.50;3.40;;;;;;;2.76;100.00;99300.44;4847521;29;20026;-90
2022/02/05 03:34:57;;;;;;;26.35;3.60;;;;;;;3.15;100.00;99369.19;4846823;29;20055;-89
2022/02/05 03:37:22;;;;;;;25.02;3.55;;;;;;;2.81;100.00;99288.25;4858533;29;20045;-90
2022/02/05 03:39:48;;;;;;;25.95;3.63;;;;;;;2.90;100.00;99290.78;4865852;29;20048;-90
2022/02/05 03:42:17;;;;;;;38.17;4.43;;;;;;;3.26;100.00;99336.78;4864418;29;20030;-90
2022/02/05 03:44:42;;;;;;;31.45;3.83;;;;;;;3.15;100.00;99300.09;4847968;29;20035;-89
2022/02/05 03:47:08;;;;;;;27.70;3.58;;;;;;;4.05;100.00;99437.03;4848399;29;20062;-90
2022/02/05 03:49:34;;;;;;;33.60;4.30;;;;;;;3.34;100.00;99300.47;4850455;29;20107;-91
2022/02/05 03:51:59;;;;;;;34.33;4.30;;;;;;;3.63;100.00;99318.97;4850641;29;20034;-88
2022/02/05 03:54:28;;;;;;;20.65;3.00;;;;;;;3.18;100.00;99272.28;4862878;29;20037;-89
2022/02/05 03:56:54;;;;;;;14.68;2.33;;;;;;;4.29;100.00;99433.16;4866688;29;20040;-89
2022/02/05 03:59:19;;;;;;;22.23;3.60;;;;;;;3.74;100.00;99336.22;4869572;29;20006;-89
2022/02/05 04:01:45;;;;;;;13.68;2.25;;;;;;;3.30;100.00;99258.31;5010255;23;20061;-87
2022/02/05 04:04:10;;;;;;;16.40;2.78;;;;;;;3.37;100.00;99281.47;5062524;23;20033;-88
2022/02/05 04:06:36;;;;;;;14.57;2.40;;;;;;;3.38;100.00;99286.63;4868561;29;20038;-90
2022/02/05 04:09:07;;;;;;;15.30;2.08;;;;;;;3.61;100.00;99309.50;4869487;29;20074;-89
2022/02/05 04:16:25;;;;;;;11.52;1.90;;;;;;;3.17;100.00;99268.81;4848598;29;20554;-90
2022/02/05 04:18:54;;;;;;;15.45;3.28;;;;;;;3.21;100.00;99288.69;4850252;29;20022;-88
2022/02/05 04:21:21;;;;;;;14.40;2.72;;;;;;;3.26;100.00;99306.72;4850961;29;20035;-89
2022/02/05 04:23:48;;;;;;;18.10;2.88;;;;;;;3.25;100.00;99305.91;4850874;29;20018;-90
2022/02/05 04:26:15;;;;;;;21.92;3.50;;;;;;;3.15;100.00;99284.13;4850591;29;20088;-89
2022/02/05 04:28:42;;;;;;;15.38;2.67;;;;;;;3.65;100.00;99366.66;4850825;29;20045;-89
2022/02/05 04:31:08;;;;;;;14.90;2.90;;;;;;;3.46;100.00;99328.19;4850094;29;20023;-89
2022/02/05 04:33:34;;;;;;;22.88;2.95;;;;;;;3.61;100.00;99357.38;4850119;29;20026;-88
2022/02/05 04:35:59;;;;;;;19.23;2.78;;;;;;;4.27;100.00;99447.66;4849729;29;20018;-90
2022/02/05 04:38:26;;;;;;;20.42;2.88;;;;;;;3.39;100.00;99316.69;4850163;29;20030;-88
2022/02/05 04:41:05;;;;;;;20.92;3.47;;;;;;;3.43;100.00;99337.38;4849298;29;20022;-89
2022/02/05 04:46:23;;;;;;;20.80;3.60;;;;;;;3.48;100.00;99347.47;4849930;29;20089;-89
2022/02/05 04:54:14;;;;;;;26.02;3.70;;;;;;;4.25;100.00;99463.84;5010828;24;20065;-87
2022/02/05 04:57:00;;;;;;;26.73;3.65;;;;;;;4.29;100.00;99448.31;4859573;29;20026;-88
2022/02/05 05:02:23;;;;;;;26.45;3.85;;;;;;;4.27;100.00;99490.28;4847695;29;20053;-88
2022/02/05 05:05:00;;;;;;;26.00;3.28;;;;;;;4.25;100.00;99461.19;4864783;29;20036;-90
2022/02/05 05:20:20;;;;;;;23.00;2.80;;;;;;;3.40;100.00;99351.03;4831576;29;20098;-90
2022/02/05 05:22:45;;;;;;;24.83;3.65;;;;;;;3.26;100.00;99357.25;4830360;29;20038;-89
2022/02/05 05:32:58;;;;;;;31.30;4.72;;;;;;;3.82;100.00;99445.22;5671170;24;20042;-89
2022/02/05 05:37:54;;;;;;;23.95;4.05;;;;;;;3.25;100.00;99340.47;4811834;29;20049;-88
2022/02/05 05:53:47;;;;;;;23.65;3.47;;;;;;;4.28;100.00;99523.91;5750259;23;20246;31
2022/02/05 06:06:25;;;;;;;17.60;3.25;;;;;;;3.99;100.00;99478.53;4841021;29;20073;-86
2022/02/05 06:08:51;;;;;;;17.35;2.95;;;;;;;3.32;100.00;99380.41;4853695;29;20093;-85
2022/02/05 06:11:17;;;;;;;23.65;4.07;;;;;;;3.32;100.00;99392.91;4835072;29;20050;-87
2022/02/05 06:13:43;;;;;;;14.10;2.58;;;;;;;3.39;100.00;99404.44;4847166;29;20014;-88
2022/02/05 06:16:13;;;;;;;20.45;3.70;;;;;;;3.25;100.00;99383.00;4864520;29;20042;-88
2022/02/05 06:18:39;;;;;;;22.35;4.35;;;;;;;4.33;100.00;99561.41;4864370;29;20063;-88
2022/02/05 06:23:40;;;;;;;12.48;2.38;;;;;;;3.69;100.00;99461.03;5456361;24;20054;-89
2022/02/05 06:26:05;;;;;;;17.70;3.40;;;;;;;3.55;100.00;99457.41;4866016;29;20037;-88
2022/02/05 06:28:31;;;;;;;25.02;3.35;;;;;;;4.13;100.00;99542.56;4868281;29;20006;-86
2022/02/05 06:30:56;;;;;;;18.77;3.13;;;;;;;4.11;100.00;99534.78;4860523;29;20372;-89
2022/02/05 06:33:25;;;;;;;23.45;3.83;;;;;;;3.58;100.00;99462.34;4863676;29;20045;-89
2022/02/05 06:35:50;;;;;;;28.58;4.45;;;;;;;4.35;100.00;99584.19;4861481;29;20048;-88
2022/02/05 06:38:16;;;;;;;25.35;4.10;;;;;;;3.34;100.00;99436.06;4862244;29;20125;-87
2022/02/05 06:40:42;;;;;;;29.48;5.32;;;;;;;4.36;100.00;99591.16;4867211;29;20245;-88
2022/02/05 06:43:07;;;;;;;24.10;3.55;;;;;;;3.40;100.00;99457.41;4863106;29;20025;-90
2022/02/05 06:45:33;;;;;;;21.23;4.00;;;;;;;3.58;100.00;99480.97;4863192;29;20030;-88
2022/02/05 06:47:59;;;;;;;21.83;3.25;;;;;;;3.78;100.00;99518.44;4865157;29;20018;-89
2022/02/05 06:50:26;;;;;;;23.17;3.92;;;;;;;4.48;100.00;99620.78;4864888;29;20053;-90
2022/02/05 06:52:51;;;;;;;21.67;3.65;;;;;;;3.40;100.00;99457.41;4863293;29;20041;-88
2022/02/05 06:55:17;;;;;;;26.92;3.80;;;;;;;3.62;100.00;99494.72;4859765;29;20037;-88
2022/02/05 06:57:43;;;;;;;36.67;5.35;;;;;;;3.51;100.00;99464.09;4848256;29;20555;-88
2022/02/05 07:00:10;;;;;;;22.60;4.07;;;;;;;3.83;100.00;99520.53;4857192;29;20034;-89
2022/02/05 07:02:35;;;;;;;32.55;4.97;;;;;;;3.51;100.00;99482.72;4855954;29;20093;-87
2022/02/05 07:05:01;;;;;;;29.23;4.70;;;;;;;3.85;100.00;99555.78;4862318;29;20040;-87
2022/02/05 07:07:27;;;;;;;24.27;3.67;;;;;;;3.69;100.00;99522.22;4851944;29;20043;-83
2022/02/05 07:09:52;;;;;;;27.48;4.28;;;;;;;4.46;100.00;99628.97;4855428;29;20190;-88
2022/02/05 07:12:18;;;;;;;23.35;4.63;;;;;;;3.48;100.00;99485.75;4855494;29;20025;-88
